Time;durP1;ratioP1;P1;durP2;ratioP2;P2;SDS_P1;SDS_P2;PMS_P1;PMS_P2;Temp;Humidity;BMP_temperature;BMP_pressure;BME280_temperature;BME280_humidity;BME280_pressure;Samples;Min_cycle;Max_cycle;Signal;HPM_P1;HPM_P2
2022/09/08 00:00:38;;;;;;;8.55;3.60;;;;;;;19.35;75.98;100750.50;4987110;30;20498;-66
2022/09/08 00:03:13;;;;;;;9.57;3.15;;;;;;;19.38;75.79;100753.00;4986771;30;20030;-67
2022/09/08 00:05:55;;;;;;;10.05;3.00;;;;;;;19.28;76.12;100752.59;4986962;30;20073;-67
2022/09/08 00:08:27;;;;;;;8.90;3.67;;;;;;;19.10;76.55;100749.09;4986946;30;20150;-67
2022/09/08 00:11:02;;;;;;;8.98;3.42;;;;;;;19.10;77.18;100765.78;4986290;30;20055;-67
2022/09/08 00:13:37;;;;;;;11.73;3.40;;;;;;;18.95;77.56;100764.75;4986549;30;20035;-66
2022/09/08 00:16:10;;;;;;;12.18;3.97;;;;;;;18.57;79.43;100766.53;4970068;30;20084;-66
2022/09/08 00:18:42;;;;;;;11.85;3.50;;;;;;;18.50;81.43;100754.53;4986957;30;20428;-66
2022/09/08 00:21:13;;;;;;;10.18;3.55;;;;;;;18.48;81.72;100744.06;4986151;30;20056;-66
2022/09/08 00:23:44;;;;;;;10.23;3.00;;;;;;;18.45;82.56;100738.06;4986610;30;20456;-66
2022/09/08 00:26:18;;;;;;;9.23;3.13;;;;;;;18.47;83.35;100729.16;4986206;30;20041;-66
2022/09/08 00:28:51;;;;;;;9.73;3.50;;;;;;;18.31;84.04;100729.00;4986655;30;20035;-65
2022/09/08 00:31:23;;;;;;;12.82;4.15;;;;;;;18.21;85.49;100717.16;4985181;30;20047;-65
2022/09/08 00:33:54;;;;;;;10.77;3.63;;;;;;;18.32;86.37;100717.53;4986223;30;20055;-65
2022/09/08 00:36:25;;;;;;;10.33;3.07;;;;;;;18.28;86.86;100728.28;4986104;30;20035;-65
2022/09/08 00:38:58;;;;;;;12.10;3.93;;;;;;;18.33;87.34;100726.28;4986131;30;20490;-65
2022/09/08 00:41:29;;;;;;;9.27;3.50;;;;;;;18.04;88.16;100718.75;4984534;30;20557;-66
2022/09/08 00:44:39;;;;;;;8.80;3.60;;;;;;;18.14;88.64;100716.56;4985976;30;20036;-64
2022/09/08 00:47:17;;;;;;;11.73;3.60;;;;;;;18.13;87.68;100708.72;4982723;30;20495;-65
2022/09/08 00:50:18;;;;;;;9.52;3.72;;;;;;;18.27;87.34;100694.91;4985365;30;20103;-65
2022/09/08 00:52:53;;;;;;;9.73;3.03;;;;;;;18.22;87.19;100703.91;4981309;30;20142;-65
2022/09/08 00:55:26;;;;;;;9.40;3.20;;;;;;;18.22;88.32;100703.91;4986076;30;20105;-65
2022/09/08 00:57:58;;;;;;;8.73;3.65;;;;;;;18.11;88.16;100695.63;4986354;30;20122;-65
2022/09/08 01:00:29;;;;;;;11.20;5.15;;;;;;;17.99;88.84;100685.63;4969771;30;20142;-65
2022/09/08 01:03:01;;;;;;;9.00;3.87;;;;;;;18.03;89.07;100676.63;4985965;30;20452;-65
2022/09/08 01:05:56;;;;;;;8.38;2.97;;;;;;;17.88;90.08;100683.47;4985774;30;20039;-65
2022/09/08 01:14:52;;;;;;;8.13;3.10;;;;;;;17.88;88.18;100683.47;4985901;30;20047;-64
2022/09/08 01:17:26;;;;;;;10.90;2.90;;;;;;;17.84;86.67;100682.72;4985641;30;20035;-65
2022/09/08 01:20:01;;;;;;;7.20;2.92;;;;;;;17.81;90.37;100672.31;4985711;30;20061;-65
2022/09/08 01:23:10;;;;;;;7.43;3.10;;;;;;;17.75;89.43;100664.66;4986621;29;20043;-65
2022/09/08 01:26:10;;;;;;;9.27;3.38;;;;;;;17.80;90.75;100656.56;4983703;30;20047;-64
2022/09/08 01:29:03;;;;;;;6.68;2.40;;;;;;;17.89;90.72;100652.66;4989206;30;20475;-66
2022/09/08 01:31:38;;;;;;;9.50;3.65;;;;;;;17.95;91.55;100655.91;4989745;30;20042;-66
2022/09/08 01:34:10;;;;;;;6.82;3.38;;;;;;;17.84;92.64;100650.22;4989884;30;20036;-65
2022/09/08 01:36:41;;;;;;;8.65;3.25;;;;;;;17.82;92.20;100662.59;4989626;30;20046;-66
2022/09/08 01:39:12;;;;;;;8.00;3.00;;;;;;;17.78;92.72;100656.63;4989682;30;20487;-65
2022/09/08 01:41:44;;;;;;;9.10;3.27;;;;;;;17.89;92.42;100660.56;4973423;30;20118;-66
2022/09/08 01:44:15;;;;;;;8.30;3.73;;;;;;;17.71;92.83;100644.66;4989186;30;20515;-65
2022/09/08 01:46:46;;;;;;;10.17;3.47;;;;;;;17.54;92.91;100631.38;4972813;30;20035;-66
2022/09/08 01:49:18;;;;;;;8.13;3.90;;;;;;;17.41;93.51;100650.34;4989180;30;20164;-65
2022/09/08 01:51:50;;;;;;;8.80;3.57;;;;;;;17.25;94.05;100654.56;4989352;30;20035;-65
2022/09/08 01:54:21;;;;;;;9.27;3.63;;;;;;;17.45;94.76;100640.50;4989386;30;20276;-65
2022/09/08 01:56:54;;;;;;;12.07;4.27;;;;;;;17.49;94.73;100642.09;4989009;30;20043;-65
2022/09/08 01:59:25;;;;;;;7.50;3.20;;;;;;;17.53;95.33;100635.75;4989104;30;20031;-65
2022/09/08 02:01:57;;;;;;;7.80;3.20;;;;;;;17.43;95.59;100631.84;4989011;30;20543;-65
2022/09/08 02:04:28;;;;;;;7.17;3.20;;;;;;;17.46;95.74;100623.78;4989392;30;20051;-65
2022/09/08 02:06:59;;;;;;;8.10;3.70;;;;;;;17.39;96.04;100620.56;4972782;30;20043;-66
2022/09/08 02:09:31;;;;;;;11.27;4.07;;;;;;;17.37;96.41;100619.78;4989129;30;20035;-65
2022/09/08 02:12:04;;;;;;;8.77;3.93;;;;;;;17.27;96.69;100602.66;4988911;30;20039;-66
2022/09/08 02:14:35;;;;;;;7.97;3.60;;;;;;;17.44;96.80;100609.84;4988847;30;20038;-65
2022/09/08 02:17:06;;;;;;;8.07;3.40;;;;;;;17.60;96.41;100610.84;4988311;30;20395;-65
2022/09/08 02:19:38;;;;;;;6.27;3.17;;;;;;;17.48;96.09;100604.38;4988788;30;20430;-65
2022/09/08 02:22:10;;;;;;;9.27;3.90;;;;;;;17.65;95.91;100600.09;4988747;30;20039;-66
2022/09/08 02:24:42;;;;;;;7.88;3.55;;;;;;;17.57;96.41;100599.59;4988599;30;20369;-66
2022/09/08 02:27:13;;;;;;;7.20;3.17;;;;;;;17.64;93.83;100606.28;4988375;30;20103;-66
2022/09/08 02:29:45;;;;;;;12.70;3.97;;;;;;;17.57;92.96;100608.34;4988790;30;20448;-65
2022/09/08 02:32:16;;;;;;;7.87;3.30;;;;;;;17.46;92.72;100597.44;4987306;30;20043;-65
2022/09/08 02:34:47;;;;;;;8.17;3.37;;;;;;;17.30;92.87;100597.25;4987875;29;20305;-64
2022/09/08 02:37:19;;;;;;;9.50;3.27;;;;;;;17.29;93.12;100596.41;4972262;30;20040;-65
2022/09/08 02:39:50;;;;;;;6.77;3.47;;;;;;;17.33;92.95;100598.91;4972117;30;20043;-65
2022/09/08 02:42:23;;;;;;;7.63;2.60;;;;;;;17.50;93.65;100602.50;4988479;30;20381;-65
2022/09/08 02:44:54;;;;;;;7.18;2.85;;;;;;;17.40;93.50;100606.47;4988289;30;20551;-65
2022/09/08 02:47:26;;;;;;;8.03;2.93;;;;;;;17.36;91.10;100615.44;4987718;30;20122;-65
2022/09/08 02:49:57;;;;;;;9.83;3.70;;;;;;;17.16;90.74;100605.75;4987964;30;20039;-65
2022/09/08 02:52:30;;;;;;;9.47;3.80;;;;;;;17.33;92.33;100605.03;4987889;30;20042;-64
2022/09/08 02:55:02;;;;;;;6.85;3.08;;;;;;;17.17;91.84;100610.09;4987968;30;20043;-64
2022/09/08 02:57:34;;;;;;;6.82;2.95;;;;;;;17.21;91.89;100602.91;4971635;30;20043;-65
2022/09/08 03:00:06;;;;;;;9.50;2.85;;;;;;;17.11;91.45;100600.72;4987799;30;20475;-65
2022/09/08 03:02:37;;;;;;;7.35;3.55;;;;;;;17.09;92.09;100599.91;4987693;30;20045;-65
2022/09/08 03:05:09;;;;;;;7.53;3.37;;;;;;;17.20;92.86;100593.31;4987767;30;20128;-66
2022/09/08 03:07:41;;;;;;;6.90;2.72;;;;;;;17.12;91.02;100601.56;4971873;30;20498;-66
2022/09/08 03:10:12;;;;;;;10.20;3.53;;;;;;;16.91;91.52;100600.69;4986406;30;20392;-66
2022/09/08 03:12:43;;;;;;;5.90;3.33;;;;;;;17.01;91.56;100609.06;4971652;30;20091;-66
2022/09/08 03:15:15;;;;;;;9.40;3.53;;;;;;;16.88;92.01;100603.44;4987481;30;20074;-66
2022/09/08 03:17:46;;;;;;;7.27;3.20;;;;;;;16.74;92.45;100609.25;4987189;30;20066;-65
2022/09/08 03:20:18;;;;;;;7.00;2.90;;;;;;;16.88;93.53;100604.28;4987412;30;20136;-65
2022/09/08 03:22:50;;;;;;;9.37;3.63;;;;;;;16.92;93.87;100603.25;4987522;30;20041;-66
2022/09/08 03:25:22;;;;;;;9.88;3.78;;;;;;;16.94;94.07;100603.19;4987587;30;20047;-66
2022/09/08 03:27:54;;;;;;;9.02;3.75;;;;;;;17.07;94.47;100599.13;4971164;30;20039;-66
2022/09/08 03:30:25;;;;;;;9.27;3.50;;;;;;;16.84;93.67;100604.44;4956363;30;20039;-67
2022/09/08 03:32:57;;;;;;;7.10;3.50;;;;;;;16.86;93.65;100603.50;4987335;30;20130;-67
2022/09/08 03:35:28;;;;;;;10.43;4.40;;;;;;;16.71;94.29;100615.50;4987305;30;20039;-66
2022/09/08 03:38:00;;;;;;;9.37;3.63;;;;;;;16.74;95.18;100627.66;4987143;30;20368;-67
2022/09/08 03:40:31;;;;;;;8.13;4.13;;;;;;;16.81;94.47;100634.41;4985931;30;20253;-66
2022/09/08 03:43:06;;;;;;;9.03;3.70;;;;;;;16.66;94.90;100646.41;4987176;30;20067;-67
2022/09/08 03:45:43;;;;;;;8.07;3.78;;;;;;;16.58;95.77;100638.84;4986357;29;20043;-66
2022/09/08 03:48:15;;;;;;;9.45;3.78;;;;;;;16.38;96.30;100604.56;4986520;30;20432;-67
2022/09/08 03:50:46;;;;;;;10.67;3.70;;;;;;;16.32;97.08;100604.81;4987074;30;20039;-66
2022/09/08 03:53:18;;;;;;;9.93;3.67;;;;;;;16.12;98.46;100606.44;4986928;30;20765;-65
2022/09/08 03:55:49;;;;;;;6.93;3.50;;;;;;;16.00;99.04;100605.16;4986625;30;20090;-65
2022/09/08 03:58:20;;;;;;;10.70;4.00;;;;;;;15.81;99.73;100586.59;4986926;30;20430;-65
2022/09/08 04:00:52;;;;;;;10.40;3.97;;;;;;;15.82;100.00;100590.91;4986852;30;20031;-65
2022/09/08 04:03:23;;;;;;;7.87;3.40;;;;;;;15.75;100.00;100585.94;4970846;30;20039;-66
2022/09/08 04:05:55;;;;;;;9.50;3.80;;;;;;;15.79;100.00;100588.44;4970824;30;20054;-66
2022/09/08 04:08:27;;;;;;;8.47;3.73;;;;;;;15.65;100.00;100585.44;4986719;30;20031;-65
2022/09/08 04:10:58;;;;;;;10.88;3.25;;;;;;;15.58;100.00;100590.03;4986492;30;20050;-65
2022/09/08 04:13:30;;;;;;;10.23;3.63;;;;;;;15.61;100.00;100589.91;4986342;30;20136;-66
2022/09/08 04:16:03;;;;;;;10.02;4.30;;;;;;;15.61;100.00;100591.69;4986234;30;20055;-65
2022/09/08 04:18:35;;;;;;;7.53;3.53;;;;;;;15.68;100.00;100595.78;4986704;30;20039;-66
2022/09/08 04:21:06;;;;;;;9.17;4.20;;;;;;;15.58;100.00;100599.69;4970451;30;20475;-65
2022/09/08 04:23:38;;;;;;;8.30;3.90;;;;;;;15.61;100.00;100600.44;4986541;30;20035;-65
2022/09/08 04:26:12;;;;;;;9.63;3.97;;;;;;;15.54;100.00;100596.31;4986814;30;20071;-66
2022/09/08 04:28:43;;;;;;;9.30;4.72;;;;;;;15.61;100.00;100604.84;4986742;30;20046;-65
2022/09/08 04:31:15;;;;;;;10.77;5.63;;;;;;;15.53;100.00;100607.72;4986241;30;20041;-65
2022/09/08 04:33:48;;;;;;;12.00;4.05;;;;;;;15.43;100.00;100601.97;4986412;30;20372;-65
2022/09/08 04:36:21;;;;;;;9.55;4.32;;;;;;;15.51;100.00;100612.19;4985994;30;20118;-65
2022/09/08 04:38:54;;;;;;;9.35;4.15;;;;;;;15.48;100.00;100614.94;4985067;30;20051;-65
2022/09/08 04:41:28;;;;;;;9.23;4.38;;;;;;;15.47;100.00;100615.81;4986346;30;20092;-66
2022/09/08 04:44:01;;;;;;;11.27;4.45;;;;;;;15.52;100.00;100616.53;4986409;30;20036;-65
2022/09/08 04:46:33;;;;;;;10.13;4.38;;;;;;;15.58;100.00;100615.44;4985891;30;20517;-66
2022/09/08 04:49:05;;;;;;;10.40;4.38;;;;;;;15.54;100.00;100619.13;4985777;30;20070;-66
2022/09/08 04:51:36;;;;;;;9.25;4.50;;;;;;;15.60;100.00;100611.88;4978932;29;20412;-66
2022/09/08 04:54:09;;;;;;;8.43;4.17;;;;;;;15.73;100.00;100617.53;4971448;29;20122;-68
2022/09/08 04:56:40;;;;;;;;;;;;;;;15.67;100.00;100613.34;4984511;30;20027;-66
2022/09/08 04:59:11;;;;;;;9.35;4.00;;;;;;;15.70;100.00;100625.53;4985766;30;19925;-66
2022/09/08 05:01:43;;;;;;;11.17;5.40;;;;;;;15.77;100.00;100624.41;4985541;30;20043;-67
2022/09/08 05:04:14;;;;;;;9.40;4.87;;;;;;;15.83;100.00;100623.34;4985980;30;20491;-66
2022/09/08 05:06:46;;;;;;;9.83;4.80;;;;;;;15.90;100.00;100622.19;4986007;30;20043;-66
2022/09/08 05:09:17;;;;;;;9.60;4.00;;;;;;;15.84;100.00;100623.28;4985998;30;20031;-66
2022/09/08 05:11:48;;;;;;;10.60;4.80;;;;;;;15.92;100.00;100620.34;4985570;30;20042;-66
2022/09/08 05:14:20;;;;;;;9.57;5.07;;;;;;;15.95;100.00;100620.22;4985965;30;20043;-66
2022/09/08 05:16:51;;;;;;;10.63;4.77;;;;;;;15.83;100.00;100626.81;4985508;30;20032;-65
2022/09/08 05:19:23;;;;;;;9.43;4.77;;;;;;;15.82;100.00;100629.50;4985556;30;20114;-66
2022/09/08 05:21:55;;;;;;;11.50;4.78;;;;;;;15.77;100.00;100631.44;4986612;30;20063;-65
2022/09/08 05:24:26;;;;;;;10.83;4.73;;;;;;;15.89;100.00;100627.50;4985557;30;20396;-65
2022/09/08 05:26:57;;;;;;;10.27;5.07;;;;;;;15.75;100.00;100631.47;4985645;30;20032;-65
2022/09/08 05:29:29;;;;;;;10.23;4.87;;;;;;;15.89;100.00;100636.25;4985674;30;20043;-66
2022/09/08 05:32:00;;;;;;;8.83;5.47;;;;;;;15.91;100.00;100633.56;4985560;30;20046;-65
2022/09/08 05:34:31;;;;;;;9.70;5.43;;;;;;;15.86;100.00;100616.19;4985408;30;20092;-66
2022/09/08 05:37:03;;;;;;;9.60;5.27;;;;;;;15.91;100.00;100621.28;4985427;30;20039;-66
2022/09/08 05:39:34;;;;;;;11.07;5.93;;;;;;;15.81;100.00;100618.13;4969641;30;20084;-66
2022/09/08 05:42:06;;;;;;;9.37;5.80;;;;;;;15.91;100.00;100623.91;4985517;30;20039;-66
2022/09/08 05:44:37;;;;;;;10.10;5.70;;;;;;;15.78;100.00;100615.63;4969394;30;20065;-66
2022/09/08 05:47:09;;;;;;;9.33;6.00;;;;;;;15.72;100.00;100617.59;4985211;30;20055;-67
2022/09/08 05:49:40;;;;;;;11.80;5.57;;;;;;;15.73;100.00;100621.91;4985284;30;20242;-67
2022/09/08 05:52:11;;;;;;;9.23;5.60;;;;;;;15.66;100.00;100624.78;4985595;30;20040;-68
2022/09/08 05:54:43;;;;;;;13.00;6.33;;;;;;;15.68;100.00;100627.31;4983782;30;20475;-67
2022/09/08 05:57:14;;;;;;;10.87;6.53;;;;;;;15.62;100.00;100630.22;4968903;30;20192;-67
2022/09/08 05:59:45;;;;;;;9.57;6.03;;;;;;;15.73;100.00;100630.66;4985066;30;20039;-68
2022/09/08 06:02:17;;;;;;;10.80;5.80;;;;;;;15.76;100.00;100627.06;4985102;30;20046;-66
2022/09/08 06:04:48;;;;;;;9.67;6.27;;;;;;;15.83;100.00;100615.44;4968944;30;20142;-67
2022/09/08 06:07:20;;;;;;;9.87;6.33;;;;;;;15.84;100.00;100625.91;4985066;29;20047;-69
2022/09/08 06:09:53;;;;;;;11.73;7.00;;;;;;;15.89;100.00;100623.09;4987808;30;20031;-67
2022/09/08 06:12:24;;;;;;;;;;;;;;;15.87;100.00;100638.06;4988918;30;20118;-66
2022/09/08 06:14:55;;;;;;;13.02;6.93;;;;;;;15.79;100.00;100635.75;4988749;30;20019;-67
2022/09/08 06:17:27;;;;;;;9.83;5.93;;;;;;;15.82;100.00;100637.38;4988330;30;20040;-66
2022/09/08 06:19:58;;;;;;;11.70;6.80;;;;;;;15.72;100.00;100642.09;4988569;30;20061;-67
2022/09/08 06:22:32;;;;;;;12.30;6.67;;;;;;;15.75;100.00;100634.09;4972573;30;20051;-67
2022/09/08 06:25:04;;;;;;;13.02;6.78;;;;;;;15.85;100.00;100629.38;4988926;30;20035;-67
2022/09/08 06:27:56;;;;;;;11.98;7.20;;;;;;;15.76;100.00;100629.69;4959257;30;20092;-66
2022/09/08 06:30:28;;;;;;;9.00;6.60;;;;;;;15.79;100.00;100630.47;4990600;30;20131;-66
2022/09/08 06:33:03;;;;;;;13.30;7.40;;;;;;;15.81;100.00;100633.91;4988861;30;20388;-65
2022/09/08 06:36:13;;;;;;;10.93;6.82;;;;;;;15.85;100.00;100637.28;4988707;30;20483;-65
2022/09/08 06:38:57;;;;;;;15.02;7.45;;;;;;;15.92;100.00;100638.75;4928766;30;20050;-66
2022/09/08 06:41:38;;;;;;;12.20;7.53;;;;;;;15.92;100.00;100635.25;4987176;29;20066;-67
2022/09/08 06:44:16;;;;;;;11.70;8.50;;;;;;;16.10;100.00;100638.97;4988644;30;20472;-66
2022/09/08 06:46:47;;;;;;;13.65;7.60;;;;;;;15.99;100.00;100634.13;4987917;30;20058;-66
2022/09/08 06:49:19;;;;;;;11.13;6.87;;;;;;;16.13;100.00;100646.75;4987997;30;20126;-66
2022/09/08 06:52:02;;;;;;;13.43;8.43;;;;;;;16.15;100.00;100643.16;4988253;30;20598;-66
2022/09/08 06:54:45;;;;;;;12.43;7.63;;;;;;;16.22;100.00;100654.28;4988801;30;20420;-66
2022/09/08 06:57:34;;;;;;;;;;;;;;;16.25;100.00;100646.28;4988600;30;20039;-66
2022/09/08 07:00:24;;;;;;;12.48;7.88;;;;;;;16.16;100.00;100644.84;4987986;30;20004;-66
2022/09/08 07:03:21;;;;;;;13.60;8.57;;;;;;;16.32;100.00;100647.75;4988084;30;20126;-66
2022/09/08 07:06:07;;;;;;;12.07;7.57;;;;;;;16.30;100.00;100649.59;4987957;30;20116;-66
2022/09/08 07:08:48;;;;;;;12.75;8.95;;;;;;;16.27;100.00;100652.31;4988249;30;20150;-66
2022/09/08 07:12:11;;;;;;;14.02;8.80;;;;;;;16.41;100.00;100647.38;4987889;30;20044;-66
2022/09/08 07:14:46;;;;;;;;;;;;;;;16.47;100.00;100642.78;4920190;30;20245;-66
2022/09/08 07:17:40;;;;;;;14.85;8.43;;;;;;;16.26;100.00;100652.38;4987177;30;19924;-65
2022/09/08 07:20:12;;;;;;;9.77;7.80;;;;;;;16.20;100.00;100654.34;4987798;29;20153;-65
2022/09/08 07:22:46;;;;;;;14.93;9.20;;;;;;;16.32;100.00;100650.38;4972035;30;20118;-68
2022/09/08 07:25:40;;;;;;;10.63;8.32;;;;;;;16.35;100.00;100654.66;4987450;30;20042;-66
2022/09/08 07:28:13;;;;;;;16.70;9.15;;;;;;;16.27;100.00;100639.19;4987665;30;20043;-65
2022/09/08 07:30:50;;;;;;;12.15;8.07;;;;;;;16.29;100.00;100645.22;4987276;30;20079;-66
2022/09/08 07:33:36;;;;;;;12.00;8.80;;;;;;;16.41;100.00;100654.44;4985917;30;20031;-66
2022/09/08 07:36:12;;;;;;;14.15;7.80;;;;;;;16.40;100.00;100656.22;4987339;30;20035;-66
2022/09/08 07:38:48;;;;;;;11.38;8.43;;;;;;;16.58;100.00;100651.13;4987018;30;20043;-66
2022/09/08 07:41:30;;;;;;;13.77;9.13;;;;;;;16.93;100.00;100649.72;4987266;30;20038;-66
2022/09/08 07:44:09;;;;;;;13.70;8.57;;;;;;;17.26;100.00;100651.88;4987147;30;20034;-66
2022/09/08 07:47:03;;;;;;;12.63;8.75;;;;;;;17.47;98.92;100643.97;4986762;30;20122;-66
2022/09/08 07:49:44;;;;;;;8.98;7.68;;;;;;;17.82;98.96;100650.31;4987266;30;20039;-66
2022/09/08 07:52:57;;;;;;;10.38;7.38;;;;;;;17.82;97.47;100655.56;4987201;30;20034;-67
2022/09/08 07:55:41;;;;;;;12.82;7.55;;;;;;;17.96;96.30;100654.13;4986921;30;20510;-67
2022/09/08 07:58:24;;;;;;;8.20;6.75;;;;;;;17.92;95.84;100650.75;4985563;30;20044;-66
2022/09/08 08:00:55;;;;;;;12.27;7.32;;;;;;;18.00;94.14;100658.31;4986746;30;20535;-66
2022/09/08 08:03:57;;;;;;;9.60;7.77;;;;;;;17.94;92.26;100671.78;4987250;30;20125;-66
2022/09/08 08:06:31;;;;;;;9.45;6.78;;;;;;;17.47;90.23;100662.41;4986776;30;20080;-65
2022/09/08 08:09:17;;;;;;;10.75;6.18;;;;;;;17.21;90.63;100667.03;4986663;30;20035;-66
2022/09/08 08:11:58;;;;;;;9.77;6.32;;;;;;;17.18;91.59;100669.78;4987220;30;20043;-65
2022/09/08 08:14:43;;;;;;;10.35;7.72;;;;;;;17.27;92.50;100663.25;4986819;30;20396;-65
2022/09/08 08:17:32;;;;;;;7.75;6.13;;;;;;;16.87;89.47;100665.78;4986616;30;20039;-67
2022/09/08 08:20:29;;;;;;;11.52;6.00;;;;;;;16.92;92.36;100669.09;4986812;30;20108;-67
2022/09/08 08:23:17;;;;;;;8.57;5.55;;;;;;;16.91;90.22;100669.16;4987033;30;20491;-66
2022/09/08 08:25:48;;;;;;;7.50;5.15;;;;;;;17.13;90.70;100664.69;4986638;30;20097;-66
2022/09/08 08:28:22;;;;;;;6.77;5.17;;;;;;;17.24;91.52;100669.53;4986469;30;20073;-66
2022/09/08 08:31:08;;;;;;;7.90;4.90;;;;;;;17.40;91.03;100677.59;4970376;30;20035;-65
2022/09/08 08:33:51;;;;;;;7.15;4.55;;;;;;;17.52;90.46;100683.25;4986498;30;20480;-65
2022/09/08 08:36:26;;;;;;;7.50;4.10;;;;;;;17.30;88.89;100678.94;4970067;30;20039;-67
2022/09/08 08:39:12;;;;;;;6.80;3.85;;;;;;;17.05;88.70;100679.97;4986508;30;20076;-66
2022/09/08 08:41:46;;;;;;;8.15;4.18;;;;;;;16.99;86.94;100674.09;4987110;30;20044;-66
2022/09/08 08:44:51;;;;;;;5.72;3.78;;;;;;;17.34;86.82;100669.97;4986704;30;20444;-66
2022/09/08 08:47:54;;;;;;;4.88;3.35;;;;;;;17.56;86.34;100680.44;4986949;30;20081;-66
2022/09/08 08:50:40;;;;;;;8.67;4.10;;;;;;;17.58;87.18;100678.59;4986257;30;20039;-67
2022/09/08 08:53:47;;;;;;;6.47;4.05;;;;;;;17.71;87.49;100681.56;4987235;30;20042;-67
2022/09/08 08:56:40;;;;;;;6.60;4.10;;;;;;;17.77;87.20;100678.63;4987189;30;20031;-66
2022/09/08 08:59:20;;;;;;;5.75;3.63;;;;;;;17.94;85.94;100677.91;4986844;30;20476;-67
2022/09/08 09:02:18;;;;;;;7.80;4.15;;;;;;;18.53;87.17;100673.44;4986863;30;20124;-66
2022/09/08 09:04:55;;;;;;;5.90;3.10;;;;;;;18.67;82.14;100672.75;4969858;30;20130;-66
2022/09/08 09:07:57;;;;;;;5.43;2.75;;;;;;;18.71;82.22;100674.31;4985688;30;20535;-66
2022/09/08 09:10:48;;;;;;;7.35;2.97;;;;;;;18.73;80.86;100671.59;4985971;30;20055;-66
2022/09/08 09:13:35;;;;;;;6.95;2.85;;;;;;;18.71;80.91;100670.84;4985882;30;20467;-67
2022/09/08 09:16:41;;;;;;;5.38;2.83;;;;;;;18.39;81.05;100679.34;4986015;30;20494;-66
2022/09/08 09:19:28;;;;;;;7.53;2.70;;;;;;;18.14;80.81;100684.91;4985825;30;20510;-65
2022/09/08 09:22:12;;;;;;;7.40;3.10;;;;;;;18.06;81.54;100675.66;4986052;30;20122;-67
2022/09/08 09:25:11;;;;;;;9.27;3.25;;;;;;;18.15;81.20;100673.44;4986058;30;20051;-67
2022/09/08 09:27:45;;;;;;;5.45;2.05;;;;;;;18.37;79.67;100672.44;4985868;30;20028;-67
2022/09/08 09:30:34;;;;;;;10.45;2.58;;;;;;;18.95;77.99;100672.28;4985641;30;20448;-66
2022/09/08 09:33:14;;;;;;;9.85;2.88;;;;;;;19.05;77.13;100675.34;4986240;30;20062;-67
2022/09/08 09:36:12;;;;;;;6.85;2.42;;;;;;;20.51;78.02;100671.19;4985618;30;20043;-67
2022/09/08 09:39:09;;;;;;;5.22;2.28;;;;;;;21.25;71.69;100661.66;4982036;30;20387;-66
2022/09/08 09:42:16;;;;;;;7.15;2.22;;;;;;;21.39;69.32;100669.66;4985420;30;20495;-66
2022/09/08 09:45:18;;;;;;;9.07;2.95;;;;;;;21.90;68.31;100663.09;4988769;30;20429;-66
2022/09/08 09:48:08;;;;;;;8.52;2.10;;;;;;;22.30;63.77;100676.53;4989020;30;20031;-66
2022/09/08 09:51:05;;;;;;;7.10;2.42;;;;;;;22.82;62.31;100673.16;4989325;30;20047;-67
2022/09/08 09:53:39;;;;;;;6.95;2.13;;;;;;;22.54;57.29;100695.34;4989189;30;20035;-66
2022/09/08 09:56:39;;;;;;;5.90;1.70;;;;;;;22.64;59.62;100685.00;4989036;30;20035;-66
2022/09/08 09:59:16;;;;;;;5.80;1.85;;;;;;;21.94;59.32;100688.50;4989107;30;20035;-66
2022/09/08 10:02:09;;;;;;;5.25;2.45;;;;;;;21.36;63.83;100669.84;4987521;29;20555;-66
2022/09/08 10:05:08;;;;;;;6.25;2.20;;;;;;;20.98;65.07;100670.31;4989022;30;20071;-66
2022/09/08 10:07:45;;;;;;;6.55;2.80;;;;;;;20.30;65.43;100671.47;4988775;30;20458;-66
2022/09/08 10:10:34;;;;;;;6.95;2.30;;;;;;;20.44;68.26;100676.00;4988541;30;20491;-67
2022/09/08 10:13:26;;;;;;;6.70;2.10;;;;;;;20.89;64.64;100671.69;4989013;30;20050;-66
2022/09/08 10:16:48;;;;;;;8.32;2.10;;;;;;;22.06;61.81;100677.13;4988850;30;20035;-66
2022/09/08 10:19:31;;;;;;;4.18;2.20;;;;;;;22.71;60.81;100679.16;4913228;30;20041;-66
2022/09/08 10:22:24;;;;;;;6.65;1.92;;;;;;;23.82;58.96;100686.81;4982000;30;20066;-66
2022/09/08 10:25:30;;;;;;;6.10;2.08;;;;;;;22.96;58.84;100685.53;4988896;30;20071;-66
2022/09/08 10:28:20;;;;;;;8.95;2.53;;;;;;;21.75;58.67;100687.00;4988939;30;20042;-66
2022/09/08 10:31:16;;;;;;;7.55;2.58;;;;;;;20.67;61.68;100693.28;4988401;30;20040;-66
2022/09/08 10:34:10;;;;;;;5.57;2.72;;;;;;;20.84;63.57;100684.34;4988888;30;20045;-66
2022/09/08 10:37:01;;;;;;;8.50;2.35;;;;;;;20.47;65.39;100685.56;4988493;30;20039;-66
2022/09/08 10:39:52;;;;;;;8.02;2.63;;;;;;;21.56;62.10;100687.25;4988618;30;20096;-66
2022/09/08 10:42:47;;;;;;;7.63;2.53;;;;;;;21.66;61.68;100682.25;4988917;30;20046;-66
2022/09/08 10:45:57;;;;;;;7.43;2.50;;;;;;;21.03;62.70;100678.84;4988418;30;20071;-66
2022/09/08 10:48:40;;;;;;;5.57;2.08;;;;;;;20.81;62.71;100673.94;4987139;30;20126;-66
2022/09/08 10:51:20;;;;;;;9.15;2.40;;;;;;;21.71;63.99;100671.34;4972212;30;20043;-66
2022/09/08 10:54:19;;;;;;;5.18;2.13;;;;;;;22.29;61.12;100672.16;4987753;29;20086;-66
2022/09/08 10:56:58;;;;;;;6.72;2.42;;;;;;;21.72;61.26;100671.25;4988263;30;20067;-67
2022/09/08 10:59:44;;;;;;;9.00;2.45;;;;;;;20.79;62.18;100672.34;4987098;30;20472;-67
2022/09/08 11:02:28;;;;;;;7.95;2.78;;;;;;;20.11;77.47;100666.34;4988559;30;20035;-67
2022/09/08 11:05:33;;;;;;;6.28;2.03;;;;;;;19.82;72.42;100667.91;4988153;30;20070;-67
2022/09/08 11:09:05;;;;;;;6.22;2.40;;;;;;;20.46;72.42;100660.88;4988139;30;20454;-67
2022/09/08 11:11:50;;;;;;;7.30;2.30;;;;;;;20.68;73.44;100663.19;4985059;30;20055;-67
2022/09/08 11:15:18;;;;;;;6.75;2.00;;;;;;;20.27;72.34;100662.81;4987997;30;20160;-67
2022/09/08 11:17:51;;;;;;;8.10;2.42;;;;;;;21.61;71.65;100650.69;4911717;30;20049;-67
2022/09/08 11:20:43;;;;;;;8.88;2.40;;;;;;;22.83;64.49;100663.38;4911659;30;20049;-67
2022/09/08 11:23:48;;;;;;;8.02;2.50;;;;;;;21.44;65.70;100656.97;4959528;30;20457;-67
2022/09/08 11:26:40;;;;;;;6.22;2.42;;;;;;;20.84;68.26;100659.66;4969175;30;20361;-67
2022/09/08 11:29:15;;;;;;;10.35;2.28;;;;;;;20.01;67.90;100652.75;4967758;30;20044;-66
2022/09/08 11:32:07;;;;;;;5.20;2.30;;;;;;;19.91;69.25;100656.81;4969013;30;20061;-66
2022/09/08 11:35:01;;;;;;;5.95;2.30;;;;;;;20.22;69.38;100649.84;4968952;30;20163;-67
2022/09/08 11:37:49;;;;;;;7.15;2.40;;;;;;;21.07;68.56;100645.91;4968872;30;20480;-67
2022/09/08 11:40:38;;;;;;;7.75;2.60;;;;;;;20.82;64.61;100645.63;4968951;30;20043;-67
2022/09/08 11:43:34;;;;;;;5.95;2.20;;;;;;;20.43;67.09;100634.59;4968976;30;20039;-67
2022/09/08 11:46:30;;;;;;;5.93;2.65;;;;;;;20.12;65.41;100648.66;4968728;30;20127;-66
2022/09/08 11:49:25;;;;;;;10.75;3.13;;;;;;;20.11;69.61;100645.16;4969043;30;20046;-67
2022/09/08 11:52:45;;;;;;;9.57;2.28;;;;;;;21.39;61.53;100650.25;4968903;30;20116;-66
2022/09/08 11:55:26;;;;;;;5.72;2.10;;;;;;;23.16;55.78;100638.19;4968557;30;20039;-66
2022/09/08 11:57:57;;;;;;;7.25;2.72;;;;;;;24.51;52.64;100635.78;4968605;30;20039;-67
2022/09/08 12:00:37;;;;;;;7.67;2.40;;;;;;;25.68;48.09;100637.59;4968497;30;20043;-68
2022/09/08 12:03:42;;;;;;;5.53;2.03;;;;;;;26.83;46.23;100627.41;4968608;30;20101;-67
2022/09/08 12:06:23;;;;;;;4.78;1.80;;;;;;;27.28;46.47;100632.50;4967770;30;20551;-67
2022/09/08 12:09:30;;;;;;;6.68;2.15;;;;;;;26.25;46.70;100632.22;4968189;30;20031;-67
2022/09/08 12:12:26;;;;;;;7.05;2.22;;;;;;;27.85;47.87;100610.66;4968282;30;20082;-67
2022/09/08 12:15:19;;;;;;;5.65;1.90;;;;;;;28.30;39.99;100612.91;4968104;30;20043;-69
2022/09/08 12:18:19;;;;;;;5.43;2.25;;;;;;;29.04;40.41;100608.00;4968289;30;20520;-68
2022/09/08 12:21:27;;;;;;;4.35;2.17;;;;;;;27.39;41.25;100602.19;4973584;30;20059;-67
2022/09/08 12:24:08;;;;;;;6.05;2.03;;;;;;;26.59;41.20;100605.38;4971084;30;20483;-67
2022/09/08 12:26:53;;;;;;;3.55;1.75;;;;;;;26.26;41.33;100612.53;4986911;30;20046;-67
2022/09/08 12:29:44;;;;;;;4.78;1.45;;;;;;;24.80;44.31;100611.47;4986676;30;20475;-68